sensor_id;sensor_type;location;lat;lon;timestamp;pressure;altitude;pressure_sealevel;temperature;humidity
53715;BME280;39608;55.630;37.864;2022-08-27T00:02:35;100107.84;;;24.37;37.81
53715;BME280;39608;55.630;37.864;2022-08-27T00:07:37;100112.50;;;24.29;37.97
53715;BME280;39608;55.630;37.864;2022-08-27T00:12:40;100106.56;;;24.04;39.09
53715;BME280;39608;55.630;37.864;2022-08-27T00:17:45;100103.41;;;23.82;39.59
53715;BME280;39608;55.630;37.864;2022-08-27T00:22:47;100114.38;;;23.75;40.47
53715;BME280;39608;55.630;37.864;2022-08-27T00:27:49;100109.03;;;23.86;39.99
53715;BME280;39608;55.630;37.864;2022-08-27T00:32:53;100108.00;;;23.94;40.03
53715;BME280;39608;55.630;37.864;2022-08-27T00:37:56;100116.69;;;23.92;40.98
53715;BME280;39608;55.630;37.864;2022-08-27T00:42:58;100112.25;;;23.88;41.10
53715;BME280;39608;55.630;37.864;2022-08-27T00:48:06;100112.81;;;23.97;41.00
53715;BME280;39608;55.630;37.864;2022-08-27T00:53:12;100123.13;;;24.00;40.77
53715;BME280;39608;55.630;37.864;2022-08-27T00:58:21;100113.84;;;24.12;40.69
53715;BME280;39608;55.630;37.864;2022-08-27T01:03:27;100121.81;;;23.71;42.20
53715;BME280;39608;55.630;37.864;2022-08-27T01:08:34;100124.31;;;23.33;43.08
53715;BME280;39608;55.630;37.864;2022-08-27T01:13:38;100121.19;;;23.35;42.99
53715;BME280;39608;55.630;37.864;2022-08-27T01:18:44;100119.13;;;23.51;42.78
53715;BME280;39608;55.630;37.864;2022-08-27T01:23:51;100124.44;;;23.40;44.30
53715;BME280;39608;55.630;37.864;2022-08-27T01:28:56;100120.66;;;23.10;44.93
53715;BME280;39608;55.630;37.864;2022-08-27T01:34:00;100128.09;;;23.05;45.00
53715;BME280;39608;55.630;37.864;2022-08-27T01:39:03;100128.53;;;22.88;46.23
53715;BME280;39608;55.630;37.864;2022-08-27T01:44:06;100129.53;;;22.60;46.07
53715;BME280;39608;55.630;37.864;2022-08-27T01:49:09;100131.19;;;22.29;46.88
53715;BME280;39608;55.630;37.864;2022-08-27T01:54:11;100134.84;;;22.17;47.21
53715;BME280;39608;55.630;37.864;2022-08-27T01:59:14;100139.13;;;21.99;48.00
53715;BME280;39608;55.630;37.864;2022-08-27T02:04:17;100139.06;;;21.95;48.32
53715;BME280;39608;55.630;37.864;2022-08-27T02:09:19;100128.81;;;21.80;48.81
53715;BME280;39608;55.630;37.864;2022-08-27T02:14:23;100141.25;;;21.58;49.21
53715;BME280;39608;55.630;37.864;2022-08-27T02:19:25;100138.41;;;21.54;49.89
53715;BME280;39608;55.630;37.864;2022-08-27T02:24:27;100146.19;;;21.64;48.90
53715;BME280;39608;55.630;37.864;2022-08-27T02:29:31;100145.06;;;21.53;49.20
53715;BME280;39608;55.630;37.864;2022-08-27T02:34:33;100148.16;;;21.51;49.48
53715;BME280;39608;55.630;37.864;2022-08-27T02:39:36;100143.81;;;21.50;48.83
53715;BME280;39608;55.630;37.864;2022-08-27T02:44:39;100152.69;;;21.44;47.27
53715;BME280;39608;55.630;37.864;2022-08-27T02:49:41;100145.44;;;21.39;47.65
53715;BME280;39608;55.630;37.864;2022-08-27T02:54:44;100151.06;;;21.43;48.41
53715;BME280;39608;55.630;37.864;2022-08-27T02:59:47;100153.66;;;21.35;48.41
53715;BME280;39608;55.630;37.864;2022-08-27T03:04:50;100163.13;;;21.22;49.03
53715;BME280;39608;55.630;37.864;2022-08-27T03:09:52;100157.75;;;21.13;48.89
53715;BME280;39608;55.630;37.864;2022-08-27T03:14:55;100161.63;;;20.96;49.09
53715;BME280;39608;55.630;37.864;2022-08-27T03:19:57;100162.06;;;20.98;49.86
53715;BME280;39608;55.630;37.864;2022-08-27T03:25:01;100163.09;;;20.94;49.79
53715;BME280;39608;55.630;37.864;2022-08-27T03:30:09;100165.28;;;21.00;49.73
53715;BME280;39608;55.630;37.864;2022-08-27T03:35:12;100171.72;;;20.92;49.29
53715;BME280;39608;55.630;37.864;2022-08-27T03:40:15;100182.72;;;21.05;48.81
53715;BME280;39608;55.630;37.864;2022-08-27T03:45:19;100191.06;;;21.20;50.21
53715;BME280;39608;55.630;37.864;2022-08-27T03:50:21;100188.06;;;20.85;51.33
53715;BME280;39608;55.630;37.864;2022-08-27T03:55:23;100178.19;;;20.72;52.65
53715;BME280;39608;55.630;37.864;2022-08-27T04:00:27;100180.72;;;20.77;52.68
53715;BME280;39608;55.630;37.864;2022-08-27T04:05:31;100171.53;;;20.73;52.78
53715;BME280;39608;55.630;37.864;2022-08-27T04:10:33;100179.78;;;20.60;53.46
53715;BME280;39608;55.630;37.864;2022-08-27T04:15:41;100175.44;;;20.59;53.30
53715;BME280;39608;55.630;37.864;2022-08-27T04:20:46;100178.53;;;20.58;53.36
53715;BME280;39608;55.630;37.864;2022-08-27T04:25:49;100185.31;;;20.85;53.29
53715;BME280;39608;55.630;37.864;2022-08-27T04:30:55;100177.47;;;21.28;51.80
53715;BME280;39608;55.630;37.864;2022-08-27T04:35:57;100179.56;;;21.47;51.90
53715;BME280;39608;55.630;37.864;2022-08-27T04:41:02;100186.69;;;21.76;51.24
53715;BME280;39608;55.630;37.864;2022-08-27T04:46:29;100175.84;;;22.15;49.85
53715;BME280;39608;55.630;37.864;2022-08-27T04:51:32;100195.31;;;23.06;47.41
53715;BME280;39608;55.630;37.864;2022-08-27T04:56:35;100194.06;;;23.62;45.72
53715;BME280;39608;55.630;37.864;2022-08-27T05:01:41;100191.22;;;24.24;44.69
53715;BME280;39608;55.630;37.864;2022-08-27T05:06:44;100195.00;;;24.63;43.90
53715;BME280;39608;55.630;37.864;2022-08-27T05:11:49;100198.03;;;24.81;43.61
53715;BME280;39608;55.630;37.864;2022-08-27T05:16:55;100193.47;;;25.26;42.97
53715;BME280;39608;55.630;37.864;2022-08-27T05:22:00;100192.00;;;25.36;42.56
53715;BME280;39608;55.630;37.864;2022-08-27T05:27:03;100187.72;;;25.42;42.15
53715;BME280;39608;55.630;37.864;2022-08-27T05:32:06;100196.25;;;25.60;42.12
53715;BME280;39608;55.630;37.864;2022-08-27T05:37:09;100191.97;;;25.70;41.65
53715;BME280;39608;55.630;37.864;2022-08-27T05:42:11;100192.25;;;25.99;41.06
53715;BME280;39608;55.630;37.864;2022-08-27T05:47:14;100189.22;;;26.11;41.23
53715;BME280;39608;55.630;37.864;2022-08-27T05:52:16;100195.28;;;26.24;41.25
53715;BME280;39608;55.630;37.864;2022-08-27T05:57:19;100193.50;;;26.53;41.11
53715;BME280;39608;55.630;37.864;2022-08-27T06:02:22;100194.56;;;26.97;40.73
53715;BME280;39608;55.630;37.864;2022-08-27T06:07:25;100191.88;;;27.22;40.05
53715;BME280;39608;55.630;37.864;2022-08-27T06:12:27;100199.19;;;27.48;39.57
53715;BME280;39608;55.630;37.864;2022-08-27T06:17:30;100190.06;;;27.66;38.52
53715;BME280;39608;55.630;37.864;2022-08-27T06:22:32;100188.06;;;27.70;38.51
53715;BME280;39608;55.630;37.864;2022-08-27T06:27:35;100185.75;;;28.01;37.90
53715;BME280;39608;55.630;37.864;2022-08-27T06:32:38;100196.50;;;28.35;37.49
53715;BME280;39608;55.630;37.864;2022-08-27T06:37:40;100195.69;;;28.60;35.81
53715;BME280;39608;55.630;37.864;2022-08-27T06:42:42;100190.47;;;28.80;35.08
53715;BME280;39608;55.630;37.864;2022-08-27T06:47:46;100188.31;;;29.16;35.30
53715;BME280;39608;55.630;37.864;2022-08-27T06:52:48;100191.66;;;29.71;33.54
53715;BME280;39608;55.630;37.864;2022-08-27T06:57:50;100183.63;;;30.29;32.59
53715;BME280;39608;55.630;37.864;2022-08-27T07:02:54;100180.69;;;30.85;32.83
53715;BME280;39608;55.630;37.864;2022-08-27T07:07:57;100182.22;;;31.25;31.96
53715;BME280;39608;55.630;37.864;2022-08-27T07:13:00;100178.34;;;31.73;30.98
53715;BME280;39608;55.630;37.864;2022-08-27T07:18:03;100181.75;;;32.12;31.12
53715;BME280;39608;55.630;37.864;2022-08-27T07:23:05;100172.91;;;32.37;29.55
53715;BME280;39608;55.630;37.864;2022-08-27T07:28:08;100173.13;;;32.70;29.57
53715;BME280;39608;55.630;37.864;2022-08-27T07:33:11;100181.13;;;32.91;28.68
53715;BME280;39608;55.630;37.864;2022-08-27T07:38:14;100171.69;;;32.82;28.68
53715;BME280;39608;55.630;37.864;2022-08-27T07:43:16;100175.72;;;33.01;28.21
53715;BME280;39608;55.630;37.864;2022-08-27T07:48:37;100177.53;;;32.91;28.73
53715;BME280;39608;55.630;37.864;2022-08-27T07:53:40;100175.63;;;32.84;28.04
53715;BME280;39608;55.630;37.864;2022-08-27T07:58:44;100164.94;;;33.16;27.54
53715;BME280;39608;55.630;37.864;2022-08-27T08:03:50;100166.47;;;33.57;26.60
53715;BME280;39608;55.630;37.864;2022-08-27T08:08:53;100163.53;;;33.97;25.89
53715;BME280;39608;55.630;37.864;2022-08-27T08:13:55;100162.03;;;34.55;25.39
53715;BME280;39608;55.630;37.864;2022-08-27T08:18:58;100155.44;;;35.17;23.70
53715;BME280;39608;55.630;37.864;2022-08-27T08:24:02;100152.75;;;35.64;23.84
53715;BME280;39608;55.630;37.864;2022-08-27T08:29:04;100149.59;;;35.88;21.50
53715;BME280;39608;55.630;37.864;2022-08-27T08:34:08;100152.13;;;36.08;22.03
53715;BME280;39608;55.630;37.864;2022-08-27T08:39:10;100140.22;;;36.39;21.22
53715;BME280;39608;55.630;37.864;2022-08-27T08:44:22;100141.50;;;36.83;20.75
53715;BME280;39608;55.630;37.864;2022-08-27T08:49:34;100138.59;;;37.05;20.46
53715;BME280;39608;55.630;37.864;2022-08-27T08:54:38;100129.75;;;37.25;19.20
53715;BME280;39608;55.630;37.864;2022-08-27T08:59:43;100121.19;;;37.88;18.62
53715;BME280;39608;55.630;37.864;2022-08-27T09:04:49;100130.75;;;37.90;18.50
53715;BME280;39608;55.630;37.864;2022-08-27T09:09:55;100117.56;;;37.96;17.57
53715;BME280;39608;55.630;37.864;2022-08-27T09:15:08;100118.66;;;37.90;17.96
53715;BME280;39608;55.630;37.864;2022-08-27T09:20:19;100116.31;;;38.16;16.98
53715;BME280;39608;55.630;37.864;2022-08-27T09:25:25;100119.00;;;38.10;17.77
53715;BME280;39608;55.630;37.864;2022-08-27T09:30:30;100116.91;;;37.83;17.20
53715;BME280;39608;55.630;37.864;2022-08-27T09:35:40;100122.59;;;37.92;17.19
53715;BME280;39608;55.630;37.864;2022-08-27T09:41:08;100108.91;;;38.09;17.14
53715;BME280;39608;55.630;37.864;2022-08-27T09:46:32;100104.25;;;37.47;16.83
53715;BME280;39608;55.630;37.864;2022-08-27T09:51:54;100104.69;;;37.36;16.99
53715;BME280;39608;55.630;37.864;2022-08-27T09:57:30;100110.88;;;37.62;17.83
53715;BME280;39608;55.630;37.864;2022-08-27T10:02:53;100109.63;;;37.63;16.83
53715;BME280;39608;55.630;37.864;2022-08-27T10:08:21;100111.63;;;37.44;17.78
53715;BME280;39608;55.630;37.864;2022-08-27T10:13:50;100100.22;;;36.94;18.10
53715;BME280;39608;55.630;37.864;2022-08-27T10:19:28;100102.94;;;37.29;17.77
53715;BME280;39608;55.630;37.864;2022-08-27T10:25:03;100100.13;;;36.76;18.42
53715;BME280;39608;55.630;37.864;2022-08-27T10:30:35;100090.81;;;36.09;18.92
53715;BME280;39608;55.630;37.864;2022-08-27T10:36:03;100083.63;;;35.95;19.41
53715;BME280;39608;55.630;37.864;2022-08-27T10:41:32;100086.41;;;36.08;18.56
53715;BME280;39608;55.630;37.864;2022-08-27T10:47:12;100092.69;;;36.69;18.96
53715;BME280;39608;55.630;37.864;2022-08-27T10:52:40;100082.69;;;37.09;18.22
53715;BME280;39608;55.630;37.864;2022-08-27T10:58:17;100081.53;;;37.78;18.63
53715;BME280;39608;55.630;37.864;2022-08-27T11:03:47;100072.81;;;37.63;17.65
53715;BME280;39608;55.630;37.864;2022-08-27T11:08:53;100069.03;;;37.57;17.19
53715;BME280;39608;55.630;37.864;2022-08-27T11:14:03;100075.31;;;37.11;17.56
53715;BME280;39608;55.630;37.864;2022-08-27T11:19:17;100073.69;;;36.70;18.02
53715;BME280;39608;55.630;37.864;2022-08-27T11:24:25;100072.66;;;36.32;17.99
53715;BME280;39608;55.630;37.864;2022-08-27T11:29:33;100066.84;;;36.13;17.72
53715;BME280;39608;55.630;37.864;2022-08-27T11:34:41;100069.50;;;35.47;18.60
53715;BME280;39608;55.630;37.864;2022-08-27T11:40:08;100064.75;;;35.18;18.99
53715;BME280;39608;55.630;37.864;2022-08-27T11:45:19;100064.06;;;35.27;19.10
53715;BME280;39608;55.630;37.864;2022-08-27T11:50:22;100063.38;;;35.61;18.66
53715;BME280;39608;55.630;37.864;2022-08-27T11:55:28;100065.22;;;36.25;18.00
53715;BME280;39608;55.630;37.864;2022-08-27T12:00:35;100064.16;;;36.54;17.63
53715;BME280;39608;55.630;37.864;2022-08-27T12:05:41;100058.59;;;36.63;17.47
53715;BME280;39608;55.630;37.864;2022-08-27T12:11:00;100055.28;;;36.65;17.99
53715;BME280;39608;55.630;37.864;2022-08-27T12:16:15;100053.31;;;37.06;17.24
53715;BME280;39608;55.630;37.864;2022-08-27T12:21:29;100050.94;;;37.05;17.37
53715;BME280;39608;55.630;37.864;2022-08-27T12:26:38;100036.91;;;36.83;17.30
53715;BME280;39608;55.630;37.864;2022-08-27T12:31:42;100042.38;;;37.18;17.83
53715;BME280;39608;55.630;37.864;2022-08-27T12:36:47;100035.97;;;36.63;17.99
53715;BME280;39608;55.630;37.864;2022-08-27T12:41:50;100027.41;;;36.45;17.99
53715;BME280;39608;55.630;37.864;2022-08-27T12:47:01;100038.91;;;36.51;18.38
53715;BME280;39608;55.630;37.864;2022-08-27T12:52:13;100024.75;;;36.28;18.15
53715;BME280;39608;55.630;37.864;2022-08-27T12:57:22;100004.25;;;35.93;17.45
53715;BME280;39608;55.630;37.864;2022-08-27T13:02:40;100017.91;;;35.59;18.04
53715;BME280;39608;55.630;37.864;2022-08-27T13:07:48;100010.66;;;35.10;17.81
53715;BME280;39608;55.630;37.864;2022-08-27T13:13:01;100023.91;;;35.49;17.79
53715;BME280;39608;55.630;37.864;2022-08-27T13:18:05;100010.22;;;35.60;18.20
53715;BME280;39608;55.630;37.864;2022-08-27T13:23:12;100009.97;;;35.67;18.19
53715;BME280;39608;55.630;37.864;2022-08-27T13:28:24;100016.25;;;35.84;18.42
53715;BME280;39608;55.630;37.864;2022-08-27T13:33:34;100012.47;;;36.22;17.30
53715;BME280;39608;55.630;37.864;2022-08-27T13:38:40;100003.28;;;36.09;17.47
53715;BME280;39608;55.630;37.864;2022-08-27T13:43:45;100009.94;;;35.80;17.54
53715;BME280;39608;55.630;37.864;2022-08-27T13:48:52;99996.25;;;35.56;17.63
53715;BME280;39608;55.630;37.864;2022-08-27T13:53:55;99999.59;;;35.16;17.89
53715;BME280;39608;55.630;37.864;2022-08-27T13:59:22;99986.25;;;34.78;18.32
53715;BME280;39608;55.630;37.864;2022-08-27T14:04:34;99998.28;;;34.40;18.78
53715;BME280;39608;55.630;37.864;2022-08-27T14:09:43;99994.31;;;33.95;18.80
53715;BME280;39608;55.630;37.864;2022-08-27T14:14:46;99983.84;;;33.50;19.64
53715;BME280;39608;55.630;37.864;2022-08-27T14:20:00;99991.84;;;33.35;19.91
53715;BME280;39608;55.630;37.864;2022-08-27T14:25:05;99986.63;;;33.00;19.99
53715;BME280;39608;55.630;37.864;2022-08-27T14:30:09;99985.13;;;32.79;20.24
53715;BME280;39608;55.630;37.864;2022-08-27T14:35:13;99993.13;;;32.61;20.25
53715;BME280;39608;55.630;37.864;2022-08-27T14:40:15;99988.81;;;32.76;20.38
53715;BME280;39608;55.630;37.864;2022-08-27T14:45:18;99983.13;;;33.13;20.46
53715;BME280;39608;55.630;37.864;2022-08-27T14:50:26;99983.38;;;33.68;19.94
53715;BME280;39608;55.630;37.864;2022-08-27T14:55:29;99980.41;;;33.58;19.64
53715;BME280;39608;55.630;37.864;2022-08-27T15:00:32;99977.97;;;33.28;20.79
53715;BME280;39608;55.630;37.864;2022-08-27T15:05:36;99983.56;;;32.95;21.21
53715;BME280;39608;55.630;37.864;2022-08-27T15:10:38;99985.84;;;32.63;21.11
53715;BME280;39608;55.630;37.864;2022-08-27T15:15:41;99982.66;;;32.24;21.54
53715;BME280;39608;55.630;37.864;2022-08-27T15:20:45;99983.09;;;32.03;21.94
53715;BME280;39608;55.630;37.864;2022-08-27T15:25:47;99976.31;;;31.80;21.98
53715;BME280;39608;55.630;37.864;2022-08-27T15:30:49;99982.16;;;31.66;22.19
53715;BME280;39608;55.630;37.864;2022-08-27T15:35:53;99976.38;;;31.53;22.13
53715;BME280;39608;55.630;37.864;2022-08-27T15:40:55;99969.97;;;31.29;22.69
53715;BME280;39608;55.630;37.864;2022-08-27T15:45:58;99965.03;;;31.13;24.03
53715;BME280;39608;55.630;37.864;2022-08-27T15:51:05;99975.56;;;31.05;23.07
53715;BME280;39608;55.630;37.864;2022-08-27T15:56:09;99973.03;;;30.83;23.04
53715;BME280;39608;55.630;37.864;2022-08-27T16:01:14;99951.34;;;30.64;23.66
53715;BME280;39608;55.630;37.864;2022-08-27T16:06:19;99957.53;;;30.51;23.75
53715;BME280;39608;55.630;37.864;2022-08-27T16:11:22;99956.13;;;30.32;23.75
53715;BME280;39608;55.630;37.864;2022-08-27T16:16:27;99937.66;;;30.08;24.43
53715;BME280;39608;55.630;37.864;2022-08-27T16:21:31;99961.63;;;30.09;24.43
53715;BME280;39608;55.630;37.864;2022-08-27T16:26:34;99960.56;;;29.95;24.86
53715;BME280;39608;55.630;37.864;2022-08-27T16:31:37;99951.97;;;29.75;25.11
53715;BME280;39608;55.630;37.864;2022-08-27T16:36:40;99964.44;;;29.67;25.18
53715;BME280;39608;55.630;37.864;2022-08-27T16:41:43;99961.81;;;29.49;25.47
53715;BME280;39608;55.630;37.864;2022-08-27T16:46:47;99969.16;;;29.32;25.88
53715;BME280;39608;55.630;37.864;2022-08-27T16:51:50;99966.03;;;29.26;26.06
53715;BME280;39608;55.630;37.864;2022-08-27T16:56:53;99966.41;;;29.21;26.19
53715;BME280;39608;55.630;37.864;2022-08-27T17:01:55;99968.50;;;29.10;26.27
53715;BME280;39608;55.630;37.864;2022-08-27T17:07:01;99968.56;;;29.06;26.39
53715;BME280;39608;55.630;37.864;2022-08-27T17:12:04;99972.97;;;29.00;26.89
53715;BME280;39608;55.630;37.864;2022-08-27T17:17:06;99969.41;;;28.96;26.84
53715;BME280;39608;55.630;37.864;2022-08-27T17:22:12;99977.41;;;28.94;26.94
53715;BME280;39608;55.630;37.864;2022-08-27T17:27:14;99974.03;;;29.17;25.84
53715;BME280;39608;55.630;37.864;2022-08-27T17:32:19;99972.78;;;28.69;27.71
53715;BME280;39608;55.630;37.864;2022-08-27T17:37:23;99974.38;;;28.59;27.70
53715;BME280;39608;55.630;37.864;2022-08-27T17:42:25;99990.03;;;28.46;28.03
53715;BME280;39608;55.630;37.864;2022-08-27T17:47:29;99980.91;;;28.34;28.27
53715;BME280;39608;55.630;37.864;2022-08-27T17:52:34;99989.66;;;28.33;28.84
53715;BME280;39608;55.630;37.864;2022-08-27T17:57:36;99988.13;;;28.21;28.95
53715;BME280;39608;55.630;37.864;2022-08-27T18:02:41;99994.50;;;28.14;28.45
53715;BME280;39608;55.630;37.864;2022-08-27T18:07:46;100000.00;;;28.43;27.27
53715;BME280;39608;55.630;37.864;2022-08-27T18:12:49;99991.34;;;27.98;29.00
53715;BME280;39608;55.630;37.864;2022-08-27T18:17:52;99989.00;;;27.86;28.98
53715;BME280;39608;55.630;37.864;2022-08-27T18:22:57;99983.00;;;27.80;29.06
53715;BME280;39608;55.630;37.864;2022-08-27T18:28:01;99980.66;;;27.71;29.40
53715;BME280;39608;55.630;37.864;2022-08-27T18:33:04;99981.84;;;27.63;29.25
53715;BME280;39608;55.630;37.864;2022-08-27T18:38:08;99995.00;;;27.62;29.31
53715;BME280;39608;55.630;37.864;2022-08-27T18:43:12;99985.44;;;27.53;29.48
53715;BME280;39608;55.630;37.864;2022-08-27T18:48:16;99989.81;;;27.50;29.66
53715;BME280;39608;55.630;37.864;2022-08-27T18:53:20;99989.44;;;27.44;29.31
53715;BME280;39608;55.630;37.864;2022-08-27T18:58:23;99966.72;;;27.28;29.36
53715;BME280;39608;55.630;37.864;2022-08-27T19:03:27;99979.47;;;27.32;29.93
53715;BME280;39608;55.630;37.864;2022-08-27T19:08:32;99986.63;;;27.30;29.53
53715;BME280;39608;55.630;37.864;2022-08-27T19:13:34;99982.25;;;27.22;30.11
53715;BME280;39608;55.630;37.864;2022-08-27T19:18:37;99977.47;;;27.11;30.21
53715;BME280;39608;55.630;37.864;2022-08-27T19:23:40;99970.28;;;27.00;30.01
53715;BME280;39608;55.630;37.864;2022-08-27T19:28:43;99969.88;;;26.90;30.51
53715;BME280;39608;55.630;37.864;2022-08-27T19:33:45;99975.84;;;26.78;31.29
53715;BME280;39608;55.630;37.864;2022-08-27T19:38:50;99968.66;;;26.73;30.78
53715;BME280;39608;55.630;37.864;2022-08-27T19:43:53;99973.41;;;26.69;31.47
53715;BME280;39608;55.630;37.864;2022-08-27T19:48:55;99971.75;;;26.61;30.72
53715;BME280;39608;55.630;37.864;2022-08-27T19:53:59;99971.34;;;26.48;31.29
53715;BME280;39608;55.630;37.864;2022-08-27T19:59:20;99973.69;;;26.35;31.51
53715;BME280;39608;55.630;37.864;2022-08-27T20:04:40;99978.78;;;26.26;31.48
53715;BME280;39608;55.630;37.864;2022-08-27T20:10:04;99968.47;;;26.23;31.31
53715;BME280;39608;55.630;37.864;2022-08-27T20:15:25;99962.06;;;26.11;31.94
53715;BME280;39608;55.630;37.864;2022-08-27T20:20:46;99967.97;;;26.03;32.04
53715;BME280;39608;55.630;37.864;2022-08-27T20:26:08;99965.91;;;25.96;32.82
53715;BME280;39608;55.630;37.864;2022-08-27T20:31:29;99965.06;;;25.85;33.19
53715;BME280;39608;55.630;37.864;2022-08-27T20:36:50;99958.25;;;25.75;32.91
53715;BME280;39608;55.630;37.864;2022-08-27T20:42:12;99964.59;;;25.72;32.78
53715;BME280;39608;55.630;37.864;2022-08-27T20:47:33;99958.53;;;25.55;33.30
53715;BME280;39608;55.630;37.864;2022-08-27T20:52:57;99960.34;;;25.33;33.25
53715;BME280;39608;55.630;37.864;2022-08-27T20:58:19;99963.75;;;25.16;33.76
53715;BME280;39608;55.630;37.864;2022-08-27T21:03:58;99963.31;;;25.14;34.38
53715;BME280;39608;55.630;37.864;2022-08-27T21:09:00;99965.25;;;25.06;34.71
53715;BME280;39608;55.630;37.864;2022-08-27T21:14:05;99964.75;;;24.97;34.39
53715;BME280;39608;55.630;37.864;2022-08-27T21:19:07;99960.97;;;24.74;35.12
53715;BME280;39608;55.630;37.864;2022-08-27T21:24:09;99966.84;;;24.69;35.42
53715;BME280;39608;55.630;37.864;2022-08-27T21:29:13;99960.44;;;24.62;35.47
53715;BME280;39608;55.630;37.864;2022-08-27T21:34:16;99953.50;;;24.45;35.93
53715;BME280;39608;55.630;37.864;2022-08-27T21:39:18;99952.97;;;24.32;36.38
53715;BME280;39608;55.630;37.864;2022-08-27T21:44:21;99944.91;;;24.23;36.53
53715;BME280;39608;55.630;37.864;2022-08-27T21:49:24;99939.19;;;24.08;36.22
53715;BME280;39608;55.630;37.864;2022-08-27T21:54:26;99940.56;;;24.22;36.68
53715;BME280;39608;55.630;37.864;2022-08-27T21:59:30;99928.28;;;24.23;36.51
53715;BME280;39608;55.630;37.864;2022-08-27T22:04:32;99931.31;;;24.11;37.10
53715;BME280;39608;55.630;37.864;2022-08-27T22:09:34;99933.59;;;24.05;37.46
53715;BME280;39608;55.630;37.864;2022-08-27T22:14:38;99926.47;;;24.04;37.38
53715;BME280;39608;55.630;37.864;2022-08-27T22:19:40;99916.84;;;23.94;37.87
53715;BME280;39608;55.630;37.864;2022-08-27T22:24:42;99920.41;;;23.95;37.47
53715;BME280;39608;55.630;37.864;2022-08-27T22:29:48;99919.28;;;23.99;37.61
53715;BME280;39608;55.630;37.864;2022-08-27T22:34:50;99916.63;;;23.80;37.93
53715;BME280;39608;55.630;37.864;2022-08-27T22:39:53;99916.97;;;23.74;38.19
53715;BME280;39608;55.630;37.864;2022-08-27T22:44:57;99914.41;;;23.62;38.53
53715;BME280;39608;55.630;37.864;2022-08-27T22:49:59;99911.19;;;23.60;38.38
53715;BME280;39608;55.630;37.864;2022-08-27T22:55:01;99923.09;;;23.61;38.78
53715;BME280;39608;55.630;37.864;2022-08-27T23:00:09;99922.81;;;23.69;38.17
53715;BME280;39608;55.630;37.864;2022-08-27T23:05:13;99909.94;;;23.54;38.86
53715;BME280;39608;55.630;37.864;2022-08-27T23:10:17;99912.16;;;23.45;38.66
53715;BME280;39608;55.630;37.864;2022-08-27T23:15:23;99910.34;;;23.29;38.72
53715;BME280;39608;55.630;37.864;2022-08-27T23:20:26;99899.66;;;23.04;38.97
53715;BME280;39608;55.630;37.864;2022-08-27T23:25:29;99910.53;;;22.94;39.00
53715;BME280;39608;55.630;37.864;2022-08-27T23:30:50;99899.84;;;22.92;38.28
53715;BME280;39608;55.630;37.864;2022-08-27T23:35:52;99894.63;;;22.87;38.66
53715;BME280;39608;55.630;37.864;2022-08-27T23:40:54;99901.75;;;22.88;38.66
53715;BME280;39608;55.630;37.864;2022-08-27T23:45:58;99893.09;;;22.89;38.73
53715;BME280;39608;55.630;37.864;2022-08-27T23:51:00;99898.19;;;22.87;38.73
53715;BME280;39608;55.630;37.864;2022-08-27T23:56:05;99887.75;;;22.77;38.80
